Est de la Fuente, Puerto Rico
Current Conditions -  °F | °C
As of 1:56 PM on Tuesday 27 Jan 2015 (Local Time) from TJSJ Reporting Station
Broken Clouds Broken Clouds  
Wind Chill: 86°   Ceiling: 6000
Heat Index: 93°   Visibility: 10mi
Dew Point: 73°   Wind: 9mph
Humidity: 65%   Direction: 60°ENE
Pressure: 29.96"   Gusts: NA
Location:  18.3893°N, 66.2481°W
Report Text: TJSJ 271756Z 06008KT 10SM SCT034 BKN060 30/23 A2996 RMK AO2 SLP145 VCSH SE SW-W T03000228 10311 20250 58022
Loading
Personal Weather Stations






























Interactive Weather Map New forecast layout! Learn more

10-Day Weather Forecast

Advertisements
Track Severe Weather on mobile